createdAt,value
2022-12-03T00:02:18.916Z,1.00
2022-12-03T00:04:45.738Z,1.00
2022-12-03T00:07:12.530Z,0.90
2022-12-03T00:09:39.326Z,1.00
2022-12-03T00:12:06.208Z,0.90
2022-12-03T00:14:33.073Z,0.90
2022-12-03T00:16:59.926Z,0.90
2022-12-03T00:19:26.689Z,0.90
2022-12-03T00:21:53.522Z,0.90
2022-12-03T00:24:20.294Z,0.80
2022-12-03T00:26:47.079Z,0.90
2022-12-03T00:29:14.267Z,0.80
2022-12-03T00:31:42.180Z,0.80
2022-12-03T00:34:09.108Z,0.90
2022-12-03T00:36:35.895Z,0.80
2022-12-03T00:39:02.749Z,0.90
2022-12-03T00:41:29.501Z,0.80
2022-12-03T00:43:59.106Z,0.70
2022-12-03T00:46:25.974Z,0.70
2022-12-03T00:48:53.126Z,0.80
2022-12-03T00:51:19.914Z,0.80
2022-12-03T00:53:46.754Z,0.80
2022-12-03T00:56:13.524Z,0.80
2022-12-03T00:58:40.332Z,0.80
2022-12-03T01:01:07.140Z,0.80
2022-12-03T01:03:34.066Z,0.80
2022-12-03T01:06:00.792Z,0.70
2022-12-03T01:08:27.644Z,0.70
2022-12-03T01:10:54.414Z,0.70
2022-12-03T01:13:21.217Z,0.80
2022-12-03T01:15:48.032Z,0.70
2022-12-03T01:18:15.010Z,0.80
2022-12-03T01:20:41.864Z,0.80
2022-12-03T01:23:08.691Z,0.80
2022-12-03T01:25:35.492Z,0.80
2022-12-03T01:28:02.354Z,0.80
2022-12-03T01:30:29.119Z,0.70
2022-12-03T01:32:55.913Z,0.80
2022-12-03T01:35:22.717Z,0.70
2022-12-03T01:37:49.562Z,0.80
2022-12-03T01:40:19.687Z,0.80
2022-12-03T01:42:46.575Z,0.80
2022-12-03T01:45:21.105Z,0.80
2022-12-03T01:47:47.966Z,0.70
2022-12-03T01:50:20.837Z,0.70
2022-12-03T01:52:47.598Z,0.70
2022-12-03T01:55:16.125Z,0.70
2022-12-03T01:57:47.625Z,0.70
2022-12-03T02:00:18.582Z,0.70
2022-12-03T02:02:45.586Z,0.70
2022-12-03T02:05:20.344Z,0.70
2022-12-03T02:07:47.635Z,0.70
2022-12-03T02:10:15.553Z,0.70
2022-12-03T02:12:48.941Z,0.70
2022-12-03T02:15:15.790Z,0.70
2022-12-03T02:17:42.995Z,0.70
2022-12-03T02:20:10.486Z,0.70
2022-12-03T02:22:44.493Z,0.70
2022-12-03T02:25:14.384Z,0.70
2022-12-03T02:27:41.339Z,0.70
2022-12-03T02:30:08.684Z,0.70
2022-12-03T02:32:35.745Z,0.60
2022-12-03T02:35:02.562Z,0.60
2022-12-03T02:37:32.454Z,0.60
2022-12-03T02:40:01.298Z,0.60
2022-12-03T02:42:37.851Z,0.50
2022-12-03T02:45:16.523Z,0.60
2022-12-03T02:47:50.930Z,0.50
2022-12-03T02:50:19.610Z,0.50
2022-12-03T02:52:46.733Z,0.50
2022-12-03T02:55:14.713Z,0.50
2022-12-03T02:57:42.913Z,0.50
2022-12-03T03:00:10.567Z,0.50
2022-12-03T03:02:38.708Z,0.50
2022-12-03T03:05:06.201Z,0.50
2022-12-03T03:07:33.752Z,0.50
2022-12-03T03:10:01.025Z,0.50
2022-12-03T03:12:27.825Z,0.50
2022-12-03T03:14:54.787Z,0.60
2022-12-03T03:17:21.885Z,0.50
2022-12-03T03:19:49.211Z,0.50
2022-12-03T03:22:16.689Z,0.40
2022-12-03T03:24:43.464Z,0.40
2022-12-03T03:27:10.478Z,0.40
2022-12-03T03:29:37.397Z,0.40
2022-12-03T03:32:09.968Z,0.40
2022-12-03T03:34:36.777Z,0.40
2022-12-03T03:37:03.832Z,0.40
2022-12-03T03:39:30.564Z,0.30
2022-12-03T03:41:57.328Z,0.40
2022-12-03T03:44:24.147Z,0.40
2022-12-03T03:46:50.891Z,0.30
2022-12-03T03:49:17.656Z,0.40
2022-12-03T03:51:44.505Z,0.40
2022-12-03T03:54:11.567Z,0.40
2022-12-03T03:56:38.489Z,0.40
2022-12-03T03:59:05.457Z,0.30
2022-12-03T04:01:32.429Z,0.30
2022-12-03T04:03:59.739Z,0.30
2022-12-03T04:06:27.175Z,0.30
2022-12-03T04:08:53.957Z,0.30
2022-12-03T04:11:39.376Z,0.30
2022-12-03T04:14:06.134Z,0.20
2022-12-03T04:16:33.063Z,0.20
2022-12-03T04:18:59.885Z,0.20
2022-12-03T04:21:45.430Z,0.30
2022-12-03T04:24:12.397Z,0.20
2022-12-03T04:26:57.770Z,0.30
2022-12-03T04:29:24.602Z,0.20
2022-12-03T04:32:09.832Z,0.10
2022-12-03T04:34:55.676Z,0.10
2022-12-03T04:37:22.698Z,0.10
2022-12-03T04:39:49.496Z,0.10
2022-12-03T04:42:16.393Z,0.10
2022-12-03T04:44:43.222Z,0.10
2022-12-03T04:47:11.673Z,0.10
2022-12-03T04:49:39.855Z,0.10
2022-12-03T04:52:07.329Z,0.10
2022-12-03T04:54:34.251Z,0.10
2022-12-03T04:57:01.192Z,0.10
2022-12-03T04:59:28.157Z,0.10
2022-12-03T05:01:54.945Z,0.10
2022-12-03T05:04:21.803Z,0.10
2022-12-03T05:06:48.627Z,0.10
2022-12-03T05:09:15.422Z,0.10
2022-12-03T05:11:42.637Z,0.10
2022-12-03T05:14:09.927Z,0.00
2022-12-03T05:16:36.996Z,0.10
2022-12-03T05:19:04.613Z,0.00
2022-12-03T05:21:31.416Z,0.10
2022-12-03T05:23:58.148Z,0.10
2022-12-03T05:26:24.916Z,0.10
2022-12-03T05:28:51.705Z,0.00
2022-12-03T05:31:18.570Z,0.00
2022-12-03T05:33:45.402Z,0.00
2022-12-03T05:36:12.487Z,0.00
2022-12-03T05:38:39.260Z,0.10
2022-12-03T05:41:26.133Z,0.10
2022-12-03T05:43:52.972Z,0.10
2022-12-03T05:46:19.938Z,0.00
2022-12-03T05:48:46.882Z,0.10
2022-12-03T05:51:13.703Z,0.10
2022-12-03T05:53:40.468Z,0.10
2022-12-03T05:56:07.445Z,0.10
2022-12-03T05:58:34.173Z,0.10
2022-12-03T06:01:00.971Z,0.10
2022-12-03T06:03:27.840Z,0.10
2022-12-03T06:05:54.776Z,0.10
2022-12-03T06:08:21.564Z,0.10
2022-12-03T06:10:48.367Z,0.00
2022-12-03T06:13:15.161Z,0.00
2022-12-03T06:15:44.045Z,0.10
2022-12-03T06:18:11.317Z,0.00
2022-12-03T06:20:38.253Z,0.10
2022-12-03T06:23:05.068Z,0.00
2022-12-03T06:25:31.910Z,0.10
2022-12-03T06:27:58.762Z,0.10
2022-12-03T06:30:25.533Z,0.00
2022-12-03T06:32:52.702Z,0.10
2022-12-03T06:35:19.484Z,0.10
2022-12-03T06:37:49.057Z,0.10
2022-12-03T06:40:16.818Z,0.10
2022-12-03T06:42:43.891Z,0.10
2022-12-03T06:45:11.341Z,0.10
2022-12-03T06:47:38.188Z,0.10
2022-12-03T06:50:07.105Z,0.10
2022-12-03T06:52:33.840Z,0.10
2022-12-03T06:55:00.677Z,0.00
2022-12-03T06:57:27.483Z,0.00
2022-12-03T06:59:54.466Z,0.00
2022-12-03T07:02:21.495Z,0.00
2022-12-03T07:04:48.347Z,0.00
2022-12-03T07:07:15.106Z,0.00
2022-12-03T07:09:41.904Z,0.00
2022-12-03T07:12:08.781Z,0.00
2022-12-03T07:14:35.570Z,0.00
2022-12-03T07:17:02.333Z,0.00
2022-12-03T07:19:32.582Z,0.00
2022-12-03T07:21:59.845Z,0.00
2022-12-03T07:24:26.821Z,0.00
2022-12-03T07:26:53.529Z,0.00
2022-12-03T07:29:20.370Z,0.10
2022-12-03T07:31:47.227Z,0.10
2022-12-03T07:34:14.133Z,0.10
2022-12-03T07:36:40.857Z,0.00
2022-12-03T07:39:07.648Z,0.00
2022-12-03T07:41:34.974Z,0.00
2022-12-03T07:44:01.801Z,0.00
2022-12-03T07:46:28.730Z,0.00
2022-12-03T07:48:55.630Z,0.00
2022-12-03T07:51:24.224Z,0.00
2022-12-03T07:53:54.472Z,0.10
2022-12-03T07:56:21.183Z,0.10
2022-12-03T07:58:47.954Z,0.00
2022-12-03T08:01:14.777Z,0.00
2022-12-03T08:03:42.991Z,-0.10
2022-12-03T08:06:09.766Z,-0.10
2022-12-03T08:08:36.534Z,-0.10
2022-12-03T08:11:03.318Z,-0.10
2022-12-03T08:13:30.161Z,0.00
2022-12-03T08:15:59.156Z,-0.10
2022-12-03T08:18:25.891Z,-0.10
2022-12-03T08:20:53.527Z,-0.10
2022-12-03T08:23:21.725Z,-0.10
2022-12-03T08:25:49.289Z,-0.10
2022-12-03T08:28:19.103Z,0.00
2022-12-03T08:31:09.465Z,-0.10
2022-12-03T08:33:36.910Z,0.00
2022-12-03T08:36:10.817Z,-0.10
2022-12-03T08:38:37.638Z,0.00
2022-12-03T08:41:11.450Z,0.00
2022-12-03T08:43:42.745Z,0.00
2022-12-03T08:46:18.399Z,-0.10
2022-12-03T08:48:48.971Z,0.00
2022-12-03T08:51:25.074Z,0.10
2022-12-03T08:53:58.251Z,0.00
2022-12-03T08:56:29.706Z,0.00
2022-12-03T08:59:01.922Z,0.10
2022-12-03T09:01:30.673Z,0.10
2022-12-03T09:03:59.325Z,0.10
2022-12-03T09:06:26.229Z,0.10
2022-12-03T09:08:53.060Z,0.10
2022-12-03T09:11:19.792Z,0.00
2022-12-03T09:13:46.507Z,0.00
2022-12-03T09:16:13.326Z,0.10
2022-12-03T09:18:40.125Z,0.00
2022-12-03T09:21:06.852Z,0.00
2022-12-03T09:23:33.756Z,0.10
2022-12-03T09:26:00.474Z,-0.10
2022-12-03T09:28:27.216Z,0.00
2022-12-03T09:30:54.007Z,0.10
2022-12-03T09:33:20.701Z,0.10
2022-12-03T09:35:47.547Z,0.10
2022-12-03T09:38:14.385Z,0.10
2022-12-03T09:40:41.654Z,0.10
2022-12-03T09:43:08.549Z,0.10
2022-12-03T09:45:35.469Z,0.10
2022-12-03T09:48:03.970Z,0.10
2022-12-03T09:50:31.197Z,0.10
2022-12-03T09:52:59.900Z,0.10
2022-12-03T09:55:27.585Z,0.10
2022-12-03T09:57:54.843Z,0.10
2022-12-03T10:00:26.225Z,0.10
2022-12-03T10:02:54.305Z,0.10
2022-12-03T10:05:22.573Z,0.20
2022-12-03T10:07:50.657Z,0.30
2022-12-03T10:10:21.812Z,0.30
2022-12-03T10:12:48.822Z,0.30
2022-12-03T10:15:17.436Z,0.40
2022-12-03T10:17:45.736Z,0.30
2022-12-03T10:20:13.601Z,0.40
2022-12-03T10:22:40.357Z,0.30
2022-12-03T10:25:12.520Z,0.30
2022-12-03T10:27:39.869Z,0.30
2022-12-03T10:30:15.680Z,0.50
2022-12-03T10:32:43.877Z,0.60
2022-12-03T10:35:13.513Z,0.70
2022-12-03T10:37:59.191Z,0.60
2022-12-03T10:40:28.042Z,0.60
2022-12-03T10:43:13.017Z,0.60
2022-12-03T10:45:40.117Z,0.70
2022-12-03T10:48:17.490Z,0.70
2022-12-03T10:50:49.070Z,0.80
2022-12-03T10:53:16.045Z,0.80
2022-12-03T10:55:43.716Z,0.90
2022-12-03T10:58:23.986Z,0.80
2022-12-03T11:00:52.188Z,0.80
2022-12-03T11:03:28.943Z,0.80
2022-12-03T11:05:56.891Z,0.80
2022-12-03T11:08:25.350Z,0.60
2022-12-03T11:11:14.049Z,0.60
2022-12-03T11:13:41.599Z,0.60
2022-12-03T11:16:08.810Z,0.70
2022-12-03T11:18:39.234Z,0.70
2022-12-03T11:21:08.529Z,0.70
2022-12-03T11:23:44.728Z,0.70
2022-12-03T11:26:19.263Z,0.60
2022-12-03T11:28:47.402Z,0.60
2022-12-03T11:31:33.701Z,0.50
2022-12-03T11:34:19.645Z,0.50
2022-12-03T11:37:05.762Z,0.50
2022-12-03T11:39:45.193Z,0.60
2022-12-03T11:42:30.678Z,0.50
2022-12-03T11:45:11.239Z,0.40
2022-12-03T11:47:43.137Z,0.50
2022-12-03T11:50:16.635Z,0.60
2022-12-03T11:52:45.769Z,0.50
2022-12-03T11:55:31.446Z,0.60
2022-12-03T11:57:59.482Z,0.50
2022-12-03T12:00:26.282Z,0.60
2022-12-03T12:02:54.279Z,0.80
2022-12-03T12:05:26.951Z,0.70
2022-12-03T12:07:55.069Z,0.70
2022-12-03T12:10:37.260Z,0.80
2022-12-03T12:13:04.383Z,0.70
2022-12-03T12:15:37.103Z,0.60
2022-12-03T12:18:22.530Z,0.50
2022-12-03T12:20:49.279Z,0.60
2022-12-03T12:23:28.001Z,0.70
2022-12-03T12:26:05.202Z,0.80
2022-12-03T12:28:47.761Z,0.90
2022-12-03T12:31:14.507Z,0.90
2022-12-03T12:33:41.241Z,0.80
2022-12-03T12:36:09.183Z,0.70
2022-12-03T12:38:35.944Z,0.60
2022-12-03T12:41:04.958Z,0.60
2022-12-03T12:43:33.705Z,0.60
2022-12-03T12:46:18.737Z,0.60
2022-12-03T12:48:48.348Z,0.50
2022-12-03T12:51:18.776Z,0.50
2022-12-03T12:53:45.771Z,0.60
2022-12-03T12:56:22.519Z,0.70
2022-12-03T12:58:50.253Z,0.60
2022-12-03T13:01:21.116Z,0.50
2022-12-03T13:03:50.525Z,0.50
2022-12-03T13:06:19.545Z,0.60
2022-12-03T13:08:48.733Z,0.60
2022-12-03T13:11:24.773Z,0.60
2022-12-03T13:13:51.724Z,0.60
2022-12-03T13:16:23.202Z,0.50
2022-12-03T13:18:53.543Z,0.40
2022-12-03T13:21:22.812Z,0.30
2022-12-03T13:23:54.174Z,0.30
2022-12-03T13:29:20.593Z,0.30
2022-12-03T13:31:52.405Z,0.30
2022-12-03T13:34:20.817Z,0.30
2022-12-03T13:36:53.483Z,0.30
2022-12-03T13:39:27.153Z,0.20
2022-12-03T13:42:20.430Z,0.10
2022-12-03T13:44:49.256Z,0.20
2022-12-03T13:47:19.289Z,0.20
2022-12-03T13:49:49.617Z,0.10
2022-12-03T13:52:19.346Z,0.10
2022-12-03T13:54:47.545Z,0.10
2022-12-03T13:57:14.284Z,0.10
2022-12-03T13:59:41.047Z,0.00
2022-12-03T14:02:10.184Z,0.10
2022-12-03T14:04:37.464Z,0.00
2022-12-03T14:07:04.900Z,0.10
2022-12-03T14:09:31.666Z,0.10
2022-12-03T14:12:17.025Z,0.20
2022-12-03T14:14:44.075Z,0.10
2022-12-03T14:17:11.855Z,0.10
2022-12-03T14:19:39.056Z,0.00
2022-12-03T14:22:08.022Z,0.00
2022-12-03T14:24:34.833Z,0.10
2022-12-03T14:27:01.546Z,0.20
2022-12-03T14:29:28.572Z,0.20
2022-12-03T14:31:55.503Z,0.20
2022-12-03T14:34:22.322Z,0.10
2022-12-03T14:36:50.757Z,0.00
2022-12-03T14:39:17.667Z,0.00
2022-12-03T14:42:03.254Z,0.00
2022-12-03T14:44:30.057Z,0.00
2022-12-03T14:46:57.590Z,0.00
2022-12-03T14:49:24.913Z,0.10
2022-12-03T14:51:51.656Z,0.00
2022-12-03T14:54:18.466Z,0.00
2022-12-03T14:56:45.312Z,0.00
2022-12-03T14:59:12.147Z,-0.10
2022-12-03T15:01:39.072Z,-0.10
2022-12-03T15:04:06.005Z,-0.10
2022-12-03T15:06:32.749Z,-0.20
2022-12-03T15:08:59.594Z,-0.10
2022-12-03T15:11:26.356Z,-0.10
2022-12-03T15:13:53.162Z,-0.10
2022-12-03T15:16:20.159Z,-0.10
2022-12-03T15:18:46.994Z,-0.20
2022-12-03T15:21:13.821Z,-0.20
2022-12-03T15:23:40.601Z,-0.20
2022-12-03T15:26:07.499Z,-0.20
2022-12-03T15:28:34.540Z,-0.20
2022-12-03T15:31:01.598Z,-0.20
2022-12-03T15:33:28.443Z,-0.20
2022-12-03T15:35:55.275Z,-0.20
2022-12-03T15:38:22.188Z,-0.20
2022-12-03T15:40:48.989Z,-0.20
2022-12-03T15:43:15.805Z,-0.20
2022-12-03T15:45:42.573Z,-0.20
2022-12-03T15:48:09.522Z,-0.20
2022-12-03T15:50:40.158Z,-0.20
2022-12-03T15:53:07.353Z,-0.20
2022-12-03T15:55:34.157Z,-0.20
2022-12-03T15:58:01.054Z,-0.20
2022-12-03T16:00:27.819Z,-0.20
2022-12-03T16:02:54.704Z,-0.10
2022-12-03T16:05:22.002Z,-0.20
2022-12-03T16:07:48.827Z,-0.20
2022-12-03T16:10:17.850Z,-0.20
2022-12-03T16:12:44.893Z,-0.20
2022-12-03T16:15:12.439Z,-0.20
2022-12-03T16:17:39.477Z,-0.30
2022-12-03T16:20:06.847Z,-0.30
2022-12-03T16:22:33.621Z,-0.30
2022-12-03T16:25:00.391Z,-0.20
2022-12-03T16:27:27.238Z,-0.20
2022-12-03T16:29:56.150Z,-0.20
2022-12-03T16:32:23.232Z,-0.20
2022-12-03T16:34:50.042Z,-0.20
2022-12-03T16:37:16.807Z,-0.20
2022-12-03T16:39:47.321Z,-0.20
2022-12-03T16:42:17.337Z,-0.20
2022-12-03T16:45:04.938Z,-0.30
2022-12-03T16:47:34.424Z,-0.20
2022-12-03T16:50:06.584Z,-0.20
2022-12-03T16:52:33.682Z,-0.30
2022-12-03T16:55:00.484Z,-0.30
2022-12-03T16:57:33.146Z,-0.20
2022-12-03T17:00:00.890Z,-0.20
2022-12-03T17:02:28.005Z,-0.20
2022-12-03T17:04:54.872Z,-0.20
2022-12-03T17:07:21.759Z,-0.30
2022-12-03T17:09:48.854Z,-0.20
2022-12-03T17:12:15.631Z,-0.20
2022-12-03T17:14:42.464Z,-0.30
2022-12-03T17:17:09.286Z,-0.30
2022-12-03T17:19:36.074Z,-0.20
2022-12-03T17:22:02.854Z,-0.30
2022-12-03T17:24:29.730Z,-0.30
2022-12-03T17:26:56.541Z,-0.20
2022-12-03T17:29:23.240Z,-0.20
2022-12-03T17:31:50.055Z,-0.10
2022-12-03T17:34:17.003Z,-0.20
2022-12-03T17:36:43.807Z,-0.20
2022-12-03T17:39:10.545Z,-0.30
2022-12-03T17:41:37.748Z,-0.20
2022-12-03T17:44:09.758Z,-0.20
2022-12-03T17:46:37.801Z,-0.20
2022-12-03T17:49:04.623Z,-0.20
2022-12-03T17:51:31.467Z,-0.20
2022-12-03T17:53:58.737Z,-0.30
2022-12-03T17:56:25.792Z,-0.30
2022-12-03T17:58:52.734Z,-0.20
2022-12-03T18:01:19.573Z,-0.20
2022-12-03T18:03:46.477Z,-0.20
2022-12-03T18:06:13.390Z,-0.20
2022-12-03T18:08:40.198Z,-0.20
2022-12-03T18:11:06.952Z,-0.20
2022-12-03T18:13:33.833Z,-0.20
2022-12-03T18:16:00.662Z,-0.20
2022-12-03T18:18:27.487Z,-0.20
2022-12-03T18:20:54.379Z,-0.20
2022-12-03T18:23:21.252Z,-0.20
2022-12-03T18:25:48.111Z,-0.20
2022-12-03T18:28:14.924Z,-0.10
2022-12-03T18:30:42.220Z,-0.20
2022-12-03T18:33:10.931Z,-0.20
2022-12-03T18:35:37.725Z,-0.20
2022-12-03T18:38:04.630Z,-0.20
2022-12-03T18:40:31.611Z,-0.20
2022-12-03T18:42:58.665Z,-0.20
2022-12-03T18:45:25.718Z,-0.20
2022-12-03T18:47:52.612Z,-0.20
2022-12-03T18:50:19.457Z,-0.20
2022-12-03T18:52:46.210Z,-0.20
2022-12-03T18:55:16.550Z,-0.20
2022-12-03T18:57:43.331Z,-0.20
2022-12-03T19:00:13.627Z,-0.20
2022-12-03T19:05:27.616Z,-0.20
2022-12-03T19:07:56.482Z,-0.20
2022-12-03T19:10:23.799Z,-0.20
2022-12-03T19:12:50.900Z,-0.20
2022-12-03T19:15:17.773Z,-0.10
2022-12-03T19:17:48.582Z,-0.20
2022-12-03T19:20:15.585Z,-0.20
2022-12-03T19:22:42.345Z,-0.10
2022-12-03T19:25:09.218Z,-0.10
2022-12-03T19:27:35.976Z,-0.10
2022-12-03T19:30:02.753Z,-0.10
2022-12-03T19:32:29.599Z,-0.10
2022-12-03T19:34:56.379Z,-0.20
2022-12-03T19:37:23.082Z,-0.10
2022-12-03T19:39:52.773Z,-0.20
2022-12-03T19:42:19.874Z,-0.10
2022-12-03T19:44:46.636Z,-0.20
2022-12-03T19:47:13.433Z,-0.20
2022-12-03T19:49:40.215Z,-0.20
2022-12-03T19:52:07.019Z,-0.20
2022-12-03T19:54:33.867Z,-0.10
2022-12-03T19:57:00.761Z,-0.10
2022-12-03T19:59:27.513Z,-0.10
2022-12-03T20:01:54.304Z,-0.10
2022-12-03T20:04:21.344Z,-0.10
2022-12-03T20:06:48.368Z,-0.10
2022-12-03T20:09:18.054Z,-0.10
2022-12-03T20:11:45.815Z,0.00
2022-12-03T20:14:14.870Z,-0.10
2022-12-03T20:16:41.749Z,-0.10
2022-12-03T20:19:10.289Z,-0.10
2022-12-03T20:21:37.811Z,-0.20
2022-12-03T20:24:04.986Z,-0.10
2022-12-03T20:26:31.952Z,-0.10
2022-12-03T20:28:58.923Z,-0.10
2022-12-03T20:31:30.066Z,-0.20
2022-12-03T20:33:58.214Z,-0.20
2022-12-03T20:36:25.765Z,-0.10
2022-12-03T20:38:56.817Z,-0.10
2022-12-03T20:41:23.715Z,-0.10
2022-12-03T20:43:50.966Z,-0.10
2022-12-03T20:46:29.295Z,-0.10
2022-12-03T20:48:58.005Z,-0.10
2022-12-03T20:51:26.418Z,-0.10
2022-12-03T20:53:53.605Z,-0.10
2022-12-03T20:56:24.991Z,-0.10
2022-12-03T20:58:51.945Z,-0.10
2022-12-03T21:01:20.022Z,-0.10
2022-12-03T21:03:47.377Z,-0.10
2022-12-03T21:06:15.018Z,-0.10
2022-12-03T21:08:43.225Z,-0.10
2022-12-03T21:11:15.408Z,-0.10
2022-12-03T21:13:44.176Z,-0.10
2022-12-03T21:16:12.620Z,-0.10
2022-12-03T21:18:39.643Z,-0.10
2022-12-03T21:21:06.971Z,-0.10
2022-12-03T21:23:34.316Z,-0.20
2022-12-03T21:26:11.545Z,-0.20
2022-12-03T21:28:39.439Z,-0.10
2022-12-03T21:31:07.757Z,-0.20
2022-12-03T21:33:35.497Z,-0.10
2022-12-03T21:36:02.851Z,-0.10
2022-12-03T21:38:30.331Z,-0.10
2022-12-03T21:40:57.566Z,-0.10
2022-12-03T21:43:24.832Z,-0.10
2022-12-03T21:45:51.984Z,-0.10
2022-12-03T21:48:19.130Z,-0.10
2022-12-03T21:50:46.329Z,-0.10
2022-12-03T21:53:13.071Z,-0.10
2022-12-03T21:55:40.736Z,-0.10
2022-12-03T21:58:07.996Z,-0.20
2022-12-03T22:00:35.331Z,-0.10
2022-12-03T22:03:02.215Z,-0.10
2022-12-03T22:05:29.086Z,-0.10
2022-12-03T22:07:55.975Z,-0.10
2022-12-03T22:10:22.832Z,-0.10
2022-12-03T22:12:49.665Z,-0.20
2022-12-03T22:15:19.164Z,-0.10
2022-12-03T22:17:47.068Z,-0.10
2022-12-03T22:20:13.868Z,-0.10
2022-12-03T22:22:40.763Z,-0.10
2022-12-03T22:25:07.906Z,-0.10
2022-12-03T22:27:34.965Z,-0.20
2022-12-03T22:30:02.967Z,0.00
2022-12-03T22:32:30.025Z,-0.20
2022-12-03T22:34:56.769Z,-0.20
2022-12-03T22:37:24.033Z,-0.20
2022-12-03T22:39:50.796Z,-0.10
2022-12-03T22:42:18.574Z,-0.10
2022-12-03T22:44:45.277Z,-0.10
2022-12-03T22:47:12.073Z,-0.10
2022-12-03T22:49:38.859Z,-0.10
2022-12-03T22:52:05.605Z,-0.20
2022-12-03T22:54:32.418Z,-0.20
2022-12-03T22:56:59.276Z,-0.20
2022-12-03T22:59:26.105Z,-0.20
2022-12-03T23:01:52.961Z,-0.20
2022-12-03T23:04:19.893Z,-0.10
2022-12-03T23:06:46.797Z,-0.10
2022-12-03T23:09:13.599Z,-0.10
2022-12-03T23:11:40.617Z,-0.10
2022-12-03T23:14:07.392Z,-0.10
2022-12-03T23:16:34.285Z,-0.10
2022-12-03T23:19:01.964Z,-0.10
2022-12-03T23:21:30.970Z,-0.10
2022-12-03T23:24:02.004Z,-0.10
2022-12-03T23:26:28.962Z,-0.10
2022-12-03T23:28:55.885Z,-0.10
2022-12-03T23:31:29.614Z,-0.10
2022-12-03T23:33:56.881Z,-0.10
2022-12-03T23:36:24.328Z,-0.10
2022-12-03T23:38:51.194Z,-0.10
2022-12-03T23:41:19.372Z,-0.10
2022-12-03T23:43:46.523Z,-0.10
2022-12-03T23:46:14.795Z,-0.10
2022-12-03T23:48:42.192Z,-0.10
2022-12-03T23:51:11.242Z,-0.10
2022-12-03T23:53:38.120Z,-0.10
2022-12-03T23:56:06.094Z,0.00
2022-12-03T23:58:33.031Z,-0.10
